createdAt,value
2018-11-04T00:00:06.361Z,36.73
2018-11-04T00:00:45.781Z,34.60
2018-11-04T00:01:20.527Z,36.93
2018-11-04T00:01:55.262Z,36.53
2018-11-04T00:02:29.922Z,36.93
2018-11-04T00:03:04.640Z,36.80
2018-11-04T00:03:39.403Z,37.00
2018-11-04T00:04:14.145Z,37.33
2018-11-04T00:04:48.923Z,35.15
2018-11-04T00:05:23.684Z,36.48
2018-11-04T00:05:58.423Z,37.03
2018-11-04T00:06:33.501Z,36.73
2018-11-04T00:07:08.661Z,39.75
2018-11-04T00:07:43.421Z,37.10
2018-11-04T00:08:18.102Z,36.80
2018-11-04T00:08:52.980Z,36.53
2018-11-04T00:09:27.680Z,38.05
2018-11-04T00:10:02.521Z,38.10
2018-11-04T00:10:37.482Z,38.67
2018-11-04T00:11:12.241Z,39.10
2018-11-04T00:11:47.281Z,37.75
2018-11-04T00:12:22.183Z,41.15
2018-11-04T00:12:56.965Z,38.78
2018-11-04T00:13:31.802Z,38.33
2018-11-04T00:14:06.724Z,37.03
2018-11-04T00:14:41.461Z,37.90
2018-11-04T00:15:16.286Z,37.85
2018-11-04T00:15:51.105Z,38.10
2018-11-04T00:16:25.720Z,38.05
2018-11-04T00:17:00.663Z,37.65
2018-11-04T00:17:35.782Z,39.03
2018-11-04T00:18:10.628Z,35.20
2018-11-04T00:18:45.464Z,37.70
2018-11-04T00:19:20.369Z,34.92
2018-11-04T00:19:55.121Z,37.50
2018-11-04T00:20:29.921Z,37.63
2018-11-04T00:21:04.763Z,36.58
2018-11-04T00:21:39.461Z,37.13
2018-11-04T00:22:13.945Z,35.15
2018-11-04T00:22:49.042Z,36.20
2018-11-04T00:23:23.741Z,36.68
2018-11-04T00:23:58.836Z,36.53
2018-11-04T00:24:33.921Z,37.23
2018-11-04T00:25:10.121Z,38.88
2018-11-04T00:25:45.360Z,36.80
2018-11-04T00:26:20.388Z,37.85
2018-11-04T00:26:56.144Z,39.23
2018-11-04T00:27:30.900Z,38.38
2018-11-04T00:28:05.682Z,37.95
2018-11-04T00:28:40.540Z,39.83
2018-11-04T00:29:15.201Z,39.05
2018-11-04T00:29:49.907Z,38.28
2018-11-04T00:30:24.740Z,39.58
2018-11-04T00:30:59.742Z,36.10
2018-11-04T00:31:34.560Z,36.45
2018-11-04T00:32:09.120Z,38.25
2018-11-04T00:32:44.049Z,37.17
2018-11-04T00:33:19.166Z,36.42
2018-11-04T00:33:53.960Z,37.45
2018-11-04T00:34:28.482Z,36.68
2018-11-04T00:35:03.280Z,37.98
2018-11-04T00:35:38.180Z,40.58
2018-11-04T00:36:12.880Z,39.83
2018-11-04T00:36:47.501Z,37.20
2018-11-04T00:37:22.101Z,40.35
2018-11-04T00:37:56.960Z,38.60
2018-11-04T00:38:31.588Z,39.40
2018-11-04T00:39:08.001Z,37.25
2018-11-04T00:39:42.848Z,38.20
2018-11-04T00:40:17.800Z,38.25
2018-11-04T00:40:52.624Z,35.60
2018-11-04T00:41:27.522Z,36.20
2018-11-04T00:42:02.341Z,38.50
2018-11-04T00:42:37.320Z,38.05
2018-11-04T00:43:12.340Z,37.90
2018-11-04T00:43:47.020Z,38.55
2018-11-04T00:44:22.220Z,36.10
2018-11-04T00:44:56.820Z,35.68
2018-11-04T00:45:31.785Z,36.95
2018-11-04T00:46:06.484Z,39.55
2018-11-04T00:46:41.280Z,38.38
2018-11-04T00:47:16.280Z,38.40
2018-11-04T00:47:51.039Z,41.15
2018-11-04T00:48:26.033Z,41.40
2018-11-04T00:49:01.019Z,38.30
2018-11-04T00:49:35.582Z,39.48
2018-11-04T00:50:13.640Z,40.30
2018-11-04T00:50:48.271Z,39.03
2018-11-04T00:51:23.162Z,41.42
2018-11-04T00:51:57.720Z,39.70
2018-11-04T00:52:32.341Z,41.00
2018-11-04T00:53:07.659Z,40.70
2018-11-04T00:53:42.601Z,43.70
2018-11-04T00:54:17.359Z,41.90
2018-11-04T00:54:51.982Z,40.30
2018-11-04T00:55:26.703Z,39.53
2018-11-04T00:56:01.250Z,41.92
2018-11-04T00:56:35.900Z,38.88
2018-11-04T00:57:10.571Z,40.23
2018-11-04T00:57:45.142Z,40.10
2018-11-04T00:58:20.021Z,42.85
2018-11-04T00:58:55.181Z,42.13
2018-11-04T00:59:31.600Z,41.28
2018-11-04T01:00:09.061Z,41.42
2018-11-04T01:00:44.249Z,42.93
2018-11-04T01:01:19.291Z,41.15
2018-11-04T01:01:54.681Z,39.55
2018-11-04T01:02:29.800Z,41.80
2018-11-04T01:03:04.880Z,42.48
2018-11-04T01:03:39.680Z,44.80
2018-11-04T01:04:14.940Z,44.67
2018-11-04T01:04:49.964Z,43.23
2018-11-04T01:05:25.008Z,41.60
2018-11-04T01:06:00.061Z,42.33
2018-11-04T01:06:35.281Z,41.50
2018-11-04T01:07:10.508Z,41.73
2018-11-04T01:07:45.320Z,40.15
2018-11-04T01:08:19.819Z,40.20
2018-11-04T01:08:55.047Z,42.78
2018-11-04T01:09:30.001Z,41.33
2018-11-04T01:10:05.104Z,41.05
2018-11-04T01:10:39.959Z,40.98
2018-11-04T01:11:14.800Z,42.33
2018-11-04T01:11:49.668Z,42.35
2018-11-04T01:12:24.260Z,42.17
2018-11-04T01:12:59.228Z,42.20
2018-11-04T01:13:34.020Z,42.45
2018-11-04T01:14:08.880Z,41.20
2018-11-04T01:14:43.640Z,39.50
2018-11-04T01:15:19.461Z,39.67
2018-11-04T01:15:54.308Z,41.08
2018-11-04T01:16:29.281Z,41.83
2018-11-04T01:17:04.419Z,42.93
2018-11-04T01:17:39.741Z,41.88
2018-11-04T01:18:15.307Z,41.10
2018-11-04T01:18:50.300Z,40.90
2018-11-04T01:19:25.419Z,42.30
2018-11-04T01:20:00.261Z,40.00
2018-11-04T01:20:35.241Z,40.70
2018-11-04T01:21:10.437Z,42.13
2018-11-04T01:21:45.907Z,40.55
2018-11-04T01:22:20.607Z,42.53
2018-11-04T01:22:55.640Z,43.78
2018-11-04T01:23:31.120Z,41.55
2018-11-04T01:24:06.479Z,41.58
2018-11-04T01:24:42.340Z,44.53
2018-11-04T01:25:17.623Z,41.15
2018-11-04T01:25:52.423Z,38.80
2018-11-04T01:26:27.230Z,40.70
2018-11-04T01:27:03.759Z,42.23
2018-11-04T01:27:38.380Z,41.95
2018-11-04T01:28:13.701Z,40.58
2018-11-04T01:28:48.919Z,41.80
2018-11-04T01:29:24.061Z,41.30
2018-11-04T01:29:58.960Z,40.88
2018-11-04T01:30:33.783Z,41.63
2018-11-04T01:31:09.082Z,43.33
2018-11-04T01:31:43.821Z,43.92
2018-11-04T01:32:18.939Z,42.58
2018-11-04T01:32:53.900Z,41.83
2018-11-04T01:33:28.739Z,42.33
2018-11-04T01:34:03.820Z,43.33
2018-11-04T01:34:38.340Z,41.83
2018-11-04T01:35:13.081Z,40.92
2018-11-04T01:35:47.707Z,41.88
2018-11-04T01:36:22.484Z,41.05
2018-11-04T01:36:57.320Z,41.02
2018-11-04T01:37:32.083Z,42.17
2018-11-04T01:38:06.959Z,43.38
2018-11-04T01:38:41.659Z,42.45
2018-11-04T01:39:16.499Z,40.90
2018-11-04T01:39:51.560Z,42.60
2018-11-04T01:40:26.481Z,39.20
2018-11-04T01:41:01.419Z,41.05
2018-11-04T01:41:36.740Z,40.43
2018-11-04T01:42:11.541Z,39.38
2018-11-04T01:42:46.860Z,39.30
2018-11-04T01:43:21.803Z,38.45
2018-11-04T01:43:56.499Z,38.50
2018-11-04T01:44:31.980Z,42.10
2018-11-04T01:45:08.602Z,40.65
2018-11-04T01:45:43.739Z,37.80
2018-11-04T01:46:18.782Z,40.43
2018-11-04T01:46:53.479Z,39.78
2018-11-04T01:47:28.140Z,40.58
2018-11-04T01:48:03.483Z,39.75
2018-11-04T01:48:38.202Z,40.52
2018-11-04T01:49:13.460Z,45.25
2018-11-04T01:49:48.599Z,42.23
2018-11-04T01:50:23.480Z,41.30
2018-11-04T01:50:58.240Z,39.25
2018-11-04T01:51:33.003Z,40.67
2018-11-04T01:52:07.987Z,41.13
2018-11-04T01:52:42.800Z,38.17
2018-11-04T01:53:17.560Z,38.88
2018-11-04T01:53:52.161Z,40.50
2018-11-04T01:54:27.001Z,40.40
2018-11-04T01:55:02.021Z,41.05
2018-11-04T01:55:36.742Z,39.23
2018-11-04T01:56:11.620Z,40.98
2018-11-04T01:56:46.439Z,41.50
2018-11-04T01:57:21.242Z,40.40
2018-11-04T01:57:56.141Z,42.88
2018-11-04T01:58:30.979Z,43.42
2018-11-04T01:59:05.825Z,42.13
2018-11-04T01:59:40.600Z,42.38
2018-11-04T02:00:16.581Z,43.48
2018-11-04T02:00:51.595Z,42.98
2018-11-04T02:01:26.401Z,41.15
2018-11-04T02:02:01.128Z,42.27
2018-11-04T02:02:35.879Z,40.88
2018-11-04T02:03:10.900Z,40.35
2018-11-04T02:03:45.779Z,42.58
2018-11-04T02:04:20.460Z,42.80
2018-11-04T02:04:55.220Z,42.98
2018-11-04T02:05:29.964Z,43.28
2018-11-04T02:06:04.908Z,41.73
2018-11-04T02:06:39.600Z,40.30
2018-11-04T02:08:17.560Z,39.03
2018-11-04T02:08:52.179Z,37.40
2018-11-04T02:09:26.879Z,39.45
2018-11-04T02:10:01.763Z,41.02
2018-11-04T02:10:36.460Z,40.40
2018-11-04T02:11:11.260Z,40.60
2018-11-04T02:11:46.280Z,43.68
2018-11-04T02:12:21.042Z,42.58
2018-11-04T02:12:55.840Z,38.78
2018-11-04T02:13:30.580Z,40.23
2018-11-04T02:14:05.160Z,36.98
2018-11-04T02:14:39.962Z,38.92
2018-11-04T02:15:14.943Z,38.98
2018-11-04T02:15:49.559Z,40.73
2018-11-04T02:16:24.341Z,40.85
2018-11-04T02:16:59.019Z,39.60
2018-11-04T02:17:33.900Z,42.10
2018-11-04T02:18:08.640Z,41.50
2018-11-04T02:18:43.460Z,40.17
2018-11-04T02:19:18.320Z,40.48
2018-11-04T02:19:53.042Z,40.67
2018-11-04T02:20:27.900Z,41.90
2018-11-04T02:21:02.680Z,41.77
2018-11-04T02:21:37.439Z,41.00
2018-11-04T02:22:12.161Z,39.27
2018-11-04T02:22:46.909Z,38.38
2018-11-04T02:23:21.488Z,40.98
2018-11-04T02:23:56.140Z,40.70
2018-11-04T02:24:30.860Z,39.00
2018-11-04T02:25:06.160Z,37.58
2018-11-04T02:25:40.940Z,38.10
2018-11-04T02:26:15.882Z,39.15
2018-11-04T02:26:50.729Z,39.73
2018-11-04T02:27:25.759Z,37.28
2018-11-04T02:28:06.940Z,36.42
2018-11-04T02:28:41.750Z,37.60
2018-11-04T02:29:16.580Z,36.98
2018-11-04T02:29:51.340Z,35.83
2018-11-04T02:30:26.021Z,36.63
2018-11-04T02:31:00.741Z,37.85
2018-11-04T02:31:35.540Z,36.70
2018-11-04T02:32:10.262Z,33.75
2018-11-04T02:32:45.760Z,35.78
2018-11-04T02:33:20.708Z,34.08
2018-11-04T02:33:55.560Z,38.20
2018-11-04T02:34:30.249Z,36.93
2018-11-04T02:35:05.261Z,36.33
2018-11-04T02:35:39.839Z,34.30
2018-11-04T02:36:14.761Z,37.03
2018-11-04T02:36:49.660Z,37.25
2018-11-04T02:37:24.421Z,35.65
2018-11-04T02:37:59.444Z,37.45
2018-11-04T02:38:34.261Z,35.80
2018-11-04T02:39:09.409Z,35.20
2018-11-04T02:39:44.061Z,33.48
2018-11-04T02:40:18.860Z,35.13
2018-11-04T02:40:53.408Z,33.60
2018-11-04T02:41:28.420Z,36.75
2018-11-04T02:42:03.121Z,36.77
2018-11-04T02:42:37.841Z,36.77
2018-11-04T02:43:12.768Z,36.80
2018-11-04T02:43:47.601Z,33.78
2018-11-04T02:44:22.282Z,35.08
2018-11-04T02:44:57.221Z,34.98
2018-11-04T02:45:31.980Z,36.90
2018-11-04T02:46:07.401Z,36.10
2018-11-04T02:46:42.216Z,34.60
2018-11-04T02:47:20.088Z,36.65
2018-11-04T02:47:54.780Z,36.95
2018-11-04T02:48:29.544Z,37.25
2018-11-04T02:49:04.340Z,36.50
2018-11-04T02:49:39.100Z,35.78
2018-11-04T02:50:13.840Z,37.00
2018-11-04T02:50:48.708Z,36.23
2018-11-04T02:51:23.402Z,34.78
2018-11-04T02:51:58.182Z,37.08
2018-11-04T02:52:33.148Z,38.00
2018-11-04T02:53:07.901Z,35.48
2018-11-04T02:53:43.261Z,35.45
2018-11-04T02:54:18.006Z,35.28
2018-11-04T02:54:53.182Z,35.15
2018-11-04T02:55:28.076Z,35.43
2018-11-04T02:56:02.920Z,37.05
2018-11-04T02:56:37.940Z,36.05
2018-11-04T02:57:12.688Z,33.78
2018-11-04T02:57:47.681Z,34.48
2018-11-04T02:58:22.840Z,34.35
2018-11-04T02:58:58.420Z,33.92
2018-11-04T02:59:33.380Z,32.73
2018-11-04T03:00:10.560Z,33.58
2018-11-04T03:00:45.679Z,33.50
2018-11-04T03:01:21.020Z,36.98
2018-11-04T03:01:56.340Z,35.13
2018-11-04T03:02:31.199Z,35.17
2018-11-04T03:03:06.740Z,35.60
2018-11-04T03:03:41.881Z,33.83
2018-11-04T03:04:17.040Z,35.78
2018-11-04T03:04:52.021Z,36.10
2018-11-04T03:05:27.428Z,35.43
2018-11-04T03:06:02.442Z,37.50
2018-11-04T03:06:37.780Z,36.03
2018-11-04T03:07:13.108Z,36.08
2018-11-04T03:07:48.121Z,36.63
2018-11-04T03:08:23.209Z,37.93
2018-11-04T03:08:58.520Z,36.35
2018-11-04T03:09:33.922Z,38.48
2018-11-04T03:10:09.961Z,35.65
2018-11-04T03:10:45.201Z,35.80
2018-11-04T03:11:20.480Z,35.25
2018-11-04T03:11:55.803Z,36.98
2018-11-04T03:12:32.759Z,36.73
2018-11-04T03:13:07.660Z,36.70
2018-11-04T03:13:42.820Z,36.08
2018-11-04T03:14:17.588Z,35.17
2018-11-04T03:14:53.000Z,34.92
2018-11-04T03:15:27.820Z,36.77
2018-11-04T03:16:02.421Z,36.68
2018-11-04T03:16:37.361Z,38.00
2018-11-04T03:17:12.260Z,37.88
2018-11-04T03:17:47.121Z,37.23
2018-11-04T03:18:21.861Z,36.53
2018-11-04T03:18:56.721Z,37.78
2018-11-04T03:19:31.882Z,37.93
2018-11-04T03:20:07.169Z,36.33
2018-11-04T03:20:42.123Z,34.55
2018-11-04T03:21:16.739Z,36.83
2018-11-04T03:21:51.702Z,36.03
2018-11-04T03:22:27.060Z,35.98
2018-11-04T03:23:01.922Z,35.17
2018-11-04T03:23:36.661Z,35.35
2018-11-04T03:24:11.901Z,34.30
2018-11-04T03:24:47.012Z,36.30
2018-11-04T03:25:21.620Z,35.83
2018-11-04T03:25:56.305Z,34.90
2018-11-04T03:26:32.279Z,35.05
2018-11-04T03:27:07.301Z,35.95
2018-11-04T03:27:42.320Z,33.58
2018-11-04T03:28:17.168Z,33.18
2018-11-04T03:28:51.940Z,35.13
2018-11-04T03:29:26.988Z,35.35
2018-11-04T03:30:01.786Z,37.55
2018-11-04T03:30:36.688Z,36.42
2018-11-04T03:31:11.440Z,34.23
2018-11-04T03:31:46.045Z,37.60
2018-11-04T03:32:20.883Z,34.75
2018-11-04T03:32:55.820Z,33.42
2018-11-04T03:33:30.421Z,36.40
2018-11-04T03:34:05.840Z,35.60
2018-11-04T03:34:40.781Z,37.53
2018-11-04T03:35:15.520Z,34.15
2018-11-04T03:35:50.061Z,35.83
2018-11-04T03:36:25.181Z,35.13
2018-11-04T03:36:59.987Z,34.23
2018-11-04T03:37:35.061Z,32.83
2018-11-04T03:38:10.388Z,35.90
2018-11-04T03:38:45.540Z,33.98
2018-11-04T03:39:20.658Z,32.23
2018-11-04T03:39:55.248Z,33.70
2018-11-04T03:40:29.960Z,32.75
2018-11-04T03:41:04.840Z,35.13
2018-11-04T03:41:40.400Z,33.98
2018-11-04T03:42:15.081Z,34.63
2018-11-04T03:42:49.840Z,34.83
2018-11-04T03:43:24.440Z,33.83
2018-11-04T03:43:59.542Z,34.05
2018-11-04T03:44:34.520Z,33.02
2018-11-04T03:45:10.079Z,35.03
2018-11-04T03:45:44.802Z,32.70
2018-11-04T03:46:19.560Z,32.83
2018-11-04T03:46:54.459Z,32.42
2018-11-04T03:47:29.267Z,33.30
2018-11-04T03:48:03.840Z,30.90
2018-11-04T03:48:38.840Z,31.23
2018-11-04T03:49:13.561Z,32.73
2018-11-04T03:49:48.362Z,31.68
2018-11-04T03:50:23.200Z,32.15
2018-11-04T03:50:58.180Z,32.70
2018-11-04T03:51:32.941Z,33.08
2018-11-04T03:52:08.220Z,32.70
2018-11-04T03:52:43.281Z,30.43
2018-11-04T03:53:17.947Z,33.15
2018-11-04T03:53:52.925Z,31.80
2018-11-04T03:54:27.740Z,32.35
2018-11-04T03:55:02.520Z,32.95
2018-11-04T03:55:38.220Z,32.88
2018-11-04T03:56:13.123Z,32.38
2018-11-04T03:56:48.040Z,31.57
2018-11-04T03:57:22.928Z,31.87
2018-11-04T03:57:57.901Z,32.85
2018-11-04T03:58:32.820Z,31.27
2018-11-04T03:59:07.841Z,31.73
2018-11-04T03:59:42.561Z,33.10
2018-11-04T04:00:17.140Z,33.20
2018-11-04T04:00:51.942Z,32.30
2018-11-04T04:01:26.685Z,30.80
2018-11-04T04:02:01.504Z,33.05
2018-11-04T04:02:36.322Z,31.12
2018-11-04T04:03:10.920Z,30.68
2018-11-04T04:03:45.862Z,29.42
2018-11-04T04:04:21.040Z,31.35
2018-11-04T04:04:55.861Z,30.30
2018-11-04T04:05:30.661Z,30.50
2018-11-04T04:06:05.281Z,31.85
2018-11-04T04:06:40.259Z,30.82
2018-11-04T04:07:14.960Z,31.52
2018-11-04T04:07:49.921Z,29.57
2018-11-04T04:08:24.520Z,30.12
2018-11-04T04:08:59.700Z,28.10
2018-11-04T04:09:34.620Z,30.40
2018-11-04T04:10:10.401Z,28.85
2018-11-04T04:10:45.360Z,29.45
2018-11-04T04:11:20.549Z,29.15
2018-11-04T04:11:55.423Z,29.95
2018-11-04T04:12:30.485Z,29.10
2018-11-04T04:13:05.260Z,30.57
2018-11-04T04:13:40.160Z,29.55
2018-11-04T04:14:15.202Z,28.80
2018-11-04T04:14:49.908Z,27.58
2018-11-04T04:15:24.680Z,27.75
2018-11-04T04:15:59.280Z,29.50
2018-11-04T04:16:34.081Z,29.70
2018-11-04T04:17:09.280Z,28.38
2018-11-04T04:17:44.500Z,26.60
2018-11-04T04:18:19.640Z,29.63
2018-11-04T04:18:54.662Z,28.70
2018-11-04T04:19:29.528Z,27.75
2018-11-04T04:20:04.661Z,27.50
2018-11-04T04:20:39.721Z,28.17
2018-11-04T04:21:14.519Z,28.67
2018-11-04T04:21:49.745Z,27.30
2018-11-04T04:22:24.701Z,26.25
2018-11-04T04:22:59.482Z,25.45
2018-11-04T04:23:34.499Z,26.52
2018-11-04T04:24:09.021Z,26.48
2018-11-04T04:24:44.124Z,28.17
2018-11-04T04:25:18.863Z,26.17
2018-11-04T04:25:53.880Z,26.80
2018-11-04T04:26:28.700Z,26.48
2018-11-04T04:27:03.669Z,27.20
2018-11-04T04:27:38.631Z,27.65
2018-11-04T04:28:13.301Z,27.48
2018-11-04T04:28:48.241Z,26.48
2018-11-04T04:29:23.547Z,26.33
2018-11-04T04:29:58.319Z,26.42
2018-11-04T04:30:33.179Z,27.02
2018-11-04T04:31:08.050Z,25.97
2018-11-04T04:31:42.980Z,26.02
2018-11-04T04:32:17.882Z,26.02
2018-11-04T04:32:52.701Z,24.87
2018-11-04T04:33:27.941Z,25.37
2018-11-04T04:34:02.879Z,25.57
2018-11-04T04:34:37.560Z,25.57
2018-11-04T04:35:12.527Z,24.45
2018-11-04T04:35:47.821Z,24.52
2018-11-04T04:36:22.343Z,25.30
2018-11-04T04:36:58.122Z,25.62
2018-11-04T04:37:33.060Z,23.55
2018-11-04T04:38:08.381Z,24.85
2018-11-04T04:38:43.470Z,25.25
2018-11-04T04:39:18.380Z,25.80
2018-11-04T04:39:53.440Z,24.52
2018-11-04T04:40:28.379Z,25.45
2018-11-04T04:41:03.460Z,25.32
2018-11-04T04:41:38.420Z,26.15
2018-11-04T04:42:13.439Z,24.02
2018-11-04T04:42:48.604Z,24.02
2018-11-04T04:43:23.787Z,24.87
2018-11-04T04:43:58.827Z,26.40
2018-11-04T04:44:34.142Z,24.77
2018-11-04T04:45:09.060Z,24.37
2018-11-04T04:45:43.775Z,23.38
2018-11-04T04:46:18.660Z,24.65
2018-11-04T04:46:53.700Z,25.15
2018-11-04T04:47:28.501Z,24.95
2018-11-04T04:48:03.402Z,24.47
2018-11-04T04:48:39.963Z,26.87
2018-11-04T04:49:15.005Z,24.43
2018-11-04T04:54:53.742Z,20.20
2018-11-04T04:55:28.759Z,23.95
2018-11-04T04:56:03.980Z,23.25
2018-11-04T04:56:38.671Z,24.75
2018-11-04T04:57:13.860Z,25.08
2018-11-04T04:57:48.640Z,25.15
2018-11-04T04:58:24.239Z,25.10
2018-11-04T04:58:59.501Z,24.37
2018-11-04T04:59:34.204Z,24.20
2018-11-04T05:00:09.659Z,24.05
2018-11-04T05:00:44.461Z,24.25
2018-11-04T05:01:19.339Z,24.02
2018-11-04T05:01:53.982Z,23.45
2018-11-04T05:02:28.820Z,24.67
2018-11-04T05:03:03.722Z,23.67
2018-11-04T05:03:38.547Z,23.45
2018-11-04T05:04:13.468Z,23.12
2018-11-04T05:04:48.141Z,22.73
2018-11-04T05:05:23.220Z,24.23
2018-11-04T05:05:58.160Z,23.42
2018-11-04T05:06:32.880Z,23.10
2018-11-04T05:07:07.639Z,23.65
2018-11-04T05:07:42.672Z,23.25
2018-11-04T05:08:17.802Z,24.47
2018-11-04T05:08:52.479Z,23.87
2018-11-04T05:09:27.647Z,24.67
2018-11-04T05:10:02.479Z,23.05
2018-11-04T05:10:37.439Z,24.43
2018-11-04T05:11:12.760Z,24.23
2018-11-04T05:11:47.683Z,24.45
2018-11-04T05:12:22.861Z,23.05
2018-11-04T05:12:57.899Z,23.45
2018-11-04T05:13:33.060Z,23.42
2018-11-04T05:14:08.379Z,23.35
2018-11-04T05:14:43.259Z,23.95
2018-11-04T05:15:18.062Z,24.30
2018-11-04T05:15:53.280Z,23.38
2018-11-04T05:16:27.819Z,24.32
2018-11-04T05:17:02.636Z,22.45
2018-11-04T05:17:37.521Z,22.20
2018-11-04T05:18:12.601Z,21.85
2018-11-04T05:18:47.660Z,22.35
2018-11-04T05:19:22.667Z,22.10
2018-11-04T05:19:57.682Z,21.73
2018-11-04T05:20:32.722Z,21.82
2018-11-04T05:21:08.161Z,22.17
2018-11-04T05:21:43.861Z,21.85
2018-11-04T05:22:18.939Z,22.27
2018-11-04T05:22:54.047Z,21.85
2018-11-04T05:23:29.247Z,21.82
2018-11-04T05:24:04.580Z,20.82
2018-11-04T05:24:39.487Z,21.05
2018-11-04T05:25:14.860Z,21.75
2018-11-04T05:25:50.065Z,20.55
2018-11-04T05:26:25.128Z,19.87
2018-11-04T05:27:00.248Z,22.07
2018-11-04T05:27:35.420Z,21.68
2018-11-04T05:28:10.602Z,22.32
2018-11-04T05:28:45.343Z,21.65
2018-11-04T05:29:20.421Z,21.33
2018-11-04T05:29:55.461Z,20.97
2018-11-04T05:30:30.340Z,19.10
2018-11-04T05:31:05.580Z,18.35
2018-11-04T05:31:40.660Z,20.85
2018-11-04T05:32:15.759Z,19.57
2018-11-04T05:32:50.821Z,19.05
2018-11-04T05:33:25.639Z,19.12
2018-11-04T05:34:00.668Z,19.73
2018-11-04T05:34:35.802Z,20.75
2018-11-04T05:35:10.981Z,19.77
2018-11-04T05:35:46.140Z,18.95
2018-11-04T05:36:21.167Z,18.23
2018-11-04T05:36:56.282Z,18.35
2018-11-04T05:37:31.224Z,18.67
2018-11-04T05:38:06.277Z,18.75
2018-11-04T05:38:41.211Z,18.32
2018-11-04T05:39:16.460Z,19.25
2018-11-04T05:39:52.041Z,19.90
2018-11-04T05:40:27.061Z,18.65
2018-11-04T05:41:02.024Z,18.15
2018-11-04T05:41:37.339Z,17.70
2018-11-04T05:42:12.301Z,18.52
2018-11-04T05:42:46.979Z,17.73
2018-11-04T05:43:21.819Z,18.62
2018-11-04T05:43:56.781Z,19.20
2018-11-04T05:44:31.661Z,17.98
2018-11-04T05:45:07.368Z,18.00
2018-11-04T05:45:42.041Z,18.30
2018-11-04T05:46:17.021Z,19.00
2018-11-04T05:46:52.267Z,17.25
2018-11-04T05:47:26.919Z,18.85
2018-11-04T05:48:01.961Z,19.57
2018-11-04T05:48:36.960Z,18.62
2018-11-04T05:49:11.820Z,19.32
2018-11-04T05:49:46.431Z,19.65
2018-11-04T05:50:21.441Z,19.10
2018-11-04T05:50:56.261Z,17.62
2018-11-04T05:51:30.871Z,18.87
2018-11-04T05:52:06.001Z,19.45
2018-11-04T05:52:41.143Z,17.48
2018-11-04T05:53:16.142Z,17.77
2018-11-04T05:53:51.060Z,17.82
2018-11-04T05:54:25.981Z,17.50
2018-11-04T05:55:00.901Z,19.15
2018-11-04T05:55:36.001Z,17.87
2018-11-04T05:56:11.467Z,19.37
2018-11-04T05:56:46.540Z,19.25
2018-11-04T05:57:21.481Z,18.42
2018-11-04T05:57:56.388Z,18.30
2018-11-04T05:58:31.040Z,18.52
2018-11-04T05:59:06.184Z,18.25
2018-11-04T05:59:40.961Z,19.07
2018-11-04T06:00:16.242Z,18.98
2018-11-04T06:00:51.040Z,18.98
2018-11-04T06:01:25.900Z,18.95
2018-11-04T06:02:00.710Z,20.25
2018-11-04T06:02:36.581Z,18.35
2018-11-04T06:03:11.602Z,17.62
2018-11-04T06:03:46.680Z,19.00
2018-11-04T06:04:21.500Z,18.82
2018-11-04T06:04:56.682Z,18.52
2018-11-04T06:05:31.961Z,18.98
2018-11-04T06:06:07.002Z,17.87
2018-11-04T06:06:42.289Z,19.55
2018-11-04T06:07:17.280Z,20.50
2018-11-04T06:07:52.221Z,18.05
2018-11-04T06:08:27.240Z,19.02
2018-11-04T06:09:02.420Z,18.52
2018-11-04T06:09:37.441Z,19.12
2018-11-04T06:10:12.260Z,19.55
2018-11-04T06:10:47.120Z,20.75
2018-11-04T06:11:21.880Z,19.50
2018-11-04T06:11:56.842Z,20.62
2018-11-04T06:12:32.063Z,19.85
2018-11-04T06:13:07.020Z,19.23
2018-11-04T06:13:42.100Z,18.35
2018-11-04T06:14:17.081Z,17.75
2018-11-04T06:14:51.760Z,19.45
2018-11-04T06:15:26.462Z,19.23
2018-11-04T06:16:01.325Z,18.85
2018-11-04T06:16:36.148Z,19.87
2018-11-04T06:17:10.963Z,19.07
2018-11-04T06:17:45.660Z,20.05
2018-11-04T06:18:20.582Z,19.62
2018-11-04T06:18:55.562Z,19.95
2018-11-04T06:19:30.409Z,19.82
2018-11-04T06:20:05.361Z,18.82
2018-11-04T06:20:40.200Z,20.08
2018-11-04T06:21:15.132Z,19.10
2018-11-04T06:21:49.901Z,20.23
2018-11-04T06:22:24.800Z,20.23
2018-11-04T06:22:59.921Z,19.62
2018-11-04T06:23:34.808Z,19.48
2018-11-04T06:24:09.701Z,19.82
2018-11-04T06:24:44.500Z,21.25
2018-11-04T06:25:19.340Z,22.27
2018-11-04T06:25:54.180Z,19.42
2018-11-04T06:26:29.060Z,20.75
2018-11-04T06:27:03.959Z,21.52
2018-11-04T06:27:38.760Z,19.70
2018-11-04T06:28:13.561Z,21.15
2018-11-04T06:28:48.581Z,20.25
2018-11-04T06:29:23.449Z,21.15
2018-11-04T06:29:58.382Z,21.23
2018-11-04T06:30:33.160Z,18.90
2018-11-04T06:31:08.220Z,20.60
2018-11-04T06:31:43.140Z,21.62
2018-11-04T06:32:18.039Z,21.15
2018-11-04T06:32:53.001Z,20.27
2018-11-04T06:33:27.659Z,21.73
2018-11-04T06:34:02.720Z,19.17
2018-11-04T06:34:37.699Z,20.10
2018-11-04T06:35:12.421Z,20.00
2018-11-04T06:35:47.262Z,19.65
2018-11-04T06:36:22.560Z,19.55
2018-11-04T06:36:57.360Z,21.10
2018-11-04T06:37:32.119Z,19.10
2018-11-04T06:38:07.068Z,20.72
2018-11-04T06:38:42.080Z,21.45
2018-11-04T06:39:16.879Z,20.25
2018-11-04T06:39:52.080Z,20.60
2018-11-04T06:40:27.000Z,20.37
2018-11-04T06:41:02.153Z,20.02
2018-11-04T06:41:37.081Z,19.52
2018-11-04T06:42:11.964Z,20.05
2018-11-04T06:42:46.900Z,19.82
2018-11-04T06:43:21.841Z,20.15
2018-11-04T06:43:57.080Z,20.30
2018-11-04T06:44:32.260Z,20.15
2018-11-04T06:45:08.361Z,20.45
2018-11-04T06:45:43.340Z,21.23
2018-11-04T06:46:18.090Z,20.88
2018-11-04T06:46:52.934Z,20.97
2018-11-04T06:47:27.699Z,21.45
2018-11-04T06:48:02.400Z,21.05
2018-11-04T06:48:37.342Z,20.17
2018-11-04T06:49:18.682Z,19.75
2018-11-04T06:49:53.340Z,21.23
2018-11-04T06:50:28.259Z,20.72
2018-11-04T06:51:02.903Z,22.67
2018-11-04T06:51:37.980Z,21.87
2018-11-04T06:52:12.740Z,21.50
2018-11-04T06:52:47.868Z,21.07
2018-11-04T06:53:22.563Z,20.00
2018-11-04T06:53:57.600Z,21.00
2018-11-04T06:54:32.100Z,21.15
2018-11-04T06:55:07.111Z,18.85
2018-11-04T06:55:41.962Z,19.40
2018-11-04T06:56:16.942Z,19.62
2018-11-04T06:56:51.861Z,20.12
2018-11-04T06:57:26.699Z,18.95
2018-11-04T06:58:01.322Z,20.37
2018-11-04T06:58:36.061Z,21.02
2018-11-04T06:59:10.900Z,20.65
2018-11-04T06:59:45.450Z,20.62
2018-11-04T07:00:20.401Z,19.57
2018-11-04T07:00:55.308Z,19.30
2018-11-04T07:01:29.839Z,18.55
2018-11-04T07:02:04.680Z,17.87
2018-11-04T07:02:39.472Z,20.52
2018-11-04T07:03:14.263Z,19.48
2018-11-04T07:03:59.923Z,21.25
2018-11-04T07:04:34.760Z,20.62
2018-11-04T07:05:09.841Z,19.48
2018-11-04T07:05:44.902Z,19.35
2018-11-04T07:06:19.684Z,20.35
2018-11-04T07:06:54.543Z,18.10
2018-11-04T07:07:29.408Z,20.40
2018-11-04T07:08:04.550Z,18.67
2018-11-04T07:08:39.501Z,18.82
2018-11-04T07:09:15.180Z,17.12
2018-11-04T07:09:49.913Z,17.67
2018-11-04T07:10:24.600Z,18.77
2018-11-04T07:10:59.241Z,18.62
2018-11-04T07:11:34.021Z,17.23
2018-11-04T07:12:08.660Z,18.30
2018-11-04T07:12:43.380Z,19.27
2018-11-04T07:13:18.300Z,19.00
2018-11-04T07:13:53.221Z,18.25
2018-11-04T07:14:27.821Z,18.55
2018-11-04T07:15:02.520Z,18.52
2018-11-04T07:15:37.221Z,18.10
2018-11-04T07:16:12.000Z,17.67
2018-11-04T07:16:46.825Z,18.10
2018-11-04T07:17:21.520Z,18.45
2018-11-04T07:17:56.420Z,19.10
2018-11-04T07:18:31.382Z,19.57
2018-11-04T07:19:06.361Z,18.42
2018-11-04T07:19:41.169Z,17.98
2018-11-04T07:20:15.740Z,18.82
2018-11-04T07:20:50.522Z,16.60
2018-11-04T07:21:25.388Z,17.30
2018-11-04T07:22:00.440Z,16.30
2018-11-04T07:22:35.326Z,16.00
2018-11-04T07:23:09.901Z,18.05
2018-11-04T07:23:44.561Z,17.37
2018-11-04T07:24:19.282Z,16.97
2018-11-04T07:24:54.301Z,16.20
2018-11-04T07:25:29.457Z,17.10
2018-11-04T07:26:04.520Z,16.55
2018-11-04T07:26:39.428Z,16.73
2018-11-04T07:27:14.480Z,16.37
2018-11-04T07:27:49.410Z,16.27
2018-11-04T07:28:24.080Z,16.07
2018-11-04T07:28:58.759Z,16.42
2018-11-04T07:29:33.680Z,16.50
2018-11-04T07:30:11.128Z,16.97
2018-11-04T07:30:45.762Z,15.85
2018-11-04T07:31:20.562Z,15.48
2018-11-04T07:31:55.820Z,14.80
2018-11-04T07:32:30.900Z,15.55
2018-11-04T07:33:05.848Z,15.68
2018-11-04T07:33:40.579Z,15.83
2018-11-04T07:34:15.361Z,14.18
2018-11-04T07:34:50.060Z,13.72
2018-11-04T07:35:24.922Z,15.48
2018-11-04T07:35:59.701Z,14.85
2018-11-04T07:36:34.579Z,17.90